Time;durP1;ratioP1;P1;durP2;ratioP2;P2;SDS_P1;SDS_P2;PMS_P1;PMS_P2;Temp;Humidity;BMP_temperature;BMP_pressure;BME280_temperature;BME280_humidity;BME280_pressure;Samples;Min_cycle;Max_cycle;Signal;HPM_P1;HPM_P2
2022/06/02 00:01:55;;;;;;;1.60;1.50;;;;;;;14.51;100.00;96293.97;5046353;28;20202;-87
2022/06/02 00:04:32;;;;;;;3.50;1.70;;;;;;;14.48;100.00;96300.75;5034573;28;20298;-87
2022/06/02 00:07:05;;;;;;;2.63;1.43;;;;;;;14.45;100.00;96301.28;5034881;28;20222;-86
2022/06/02 00:09:57;;;;;;;5.43;1.40;;;;;;;14.47;100.00;96309.13;5032149;28;20214;-87
2022/06/02 00:12:31;;;;;;;1.60;1.50;;;;;;;14.44;100.00;96306.97;5028826;28;20241;-86
2022/06/02 00:15:13;;;;;;;1.70;1.60;;;;;;;14.48;100.00;96313.50;5021159;28;20211;-87
2022/06/02 00:17:48;;;;;;;2.37;1.50;;;;;;;14.47;100.00;96306.44;5026610;28;20316;-86
2022/06/02 00:20:19;;;;;;;2.60;1.70;;;;;;;14.47;100.00;96309.13;5042120;28;20209;-86
2022/06/02 00:23:10;;;;;;;1.70;1.60;;;;;;;14.42;100.00;96303.66;5030813;28;20206;-87
2022/06/02 00:25:49;;;;;;;1.60;1.50;;;;;;;14.36;100.00;96311.75;5036048;28;20215;-87
2022/06/02 00:28:28;;;;;;;1.90;1.50;;;;;;;14.32;100.00;96316.03;5026814;28;20214;-86
2022/06/02 00:31:03;;;;;;;3.50;1.60;;;;;;;14.35;100.00;96296.50;5027621;28;20273;-86
2022/06/02 00:33:39;;;;;;;1.67;1.57;;;;;;;14.32;100.00;96301.63;5034789;28;20216;-87
2022/06/02 00:36:11;;;;;;;6.07;2.17;;;;;;;14.33;100.00;96306.81;5029404;28;20260;-87
2022/06/02 00:38:40;;;;;;;2.77;1.67;;;;;;;14.35;100.00;96309.28;5036146;28;20195;-87
2022/06/02 00:41:20;;;;;;;3.57;1.80;;;;;;;14.29;100.00;96305.66;5029749;28;20314;-87
2022/06/02 00:44:04;;;;;;;2.90;1.70;;;;;;;14.34;100.00;96318.50;5027151;28;20210;-86
2022/06/02 00:46:50;;;;;;;3.13;1.83;;;;;;;14.32;100.00;96336.94;5026037;28;20225;-87
2022/06/02 00:49:24;;;;;;;1.67;1.57;;;;;;;14.31;100.00;96346.97;5019984;28;20221;-87
2022/06/02 00:52:13;;;;;;;2.60;1.73;;;;;;;14.39;100.00;96365.56;5031401;28;20213;-86
2022/06/02 00:57:45;;;;;;;2.10;1.90;;;;;;;14.22;100.00;96315.91;5027137;28;20255;-87
2022/06/02 01:00:17;;;;;;;3.67;2.13;;;;;;;14.12;100.00;96323.94;5033388;28;20293;-86
2022/06/02 01:02:54;;;;;;;2.93;2.17;;;;;;;14.15;100.00;96334.28;5029392;28;20225;-86
2022/06/02 01:05:36;;;;;;;3.80;1.80;;;;;;;14.18;100.00;96331.09;5029846;28;20209;-86
2022/06/02 01:08:12;;;;;;;2.40;2.03;;;;;;;14.19;100.00;96321.88;5039195;28;20237;-86
2022/06/02 01:11:05;;;;;;;2.03;1.73;;;;;;;14.22;100.00;96320.50;5043540;28;20202;-86
2022/06/02 01:13:53;;;;;;;2.90;1.70;;;;;;;14.25;100.00;96331.69;5037583;28;20211;-86
2022/06/02 01:16:25;;;;;;;3.83;2.33;;;;;;;14.32;100.00;96340.47;5039660;28;20244;-86
2022/06/02 01:19:05;;;;;;;3.67;1.87;;;;;;;14.37;100.00;96356.81;5024986;28;20507;-87
2022/06/02 01:22:02;;;;;;;2.00;1.70;;;;;;;14.42;100.00;96347.13;5038202;28;20221;-86
2022/06/02 01:25:02;;;;;;;1.90;1.70;;;;;;;14.44;100.00;96342.28;5013882;28;20206;-86
2022/06/02 01:28:05;;;;;;;6.07;2.40;;;;;;;14.45;100.00;96330.34;5032544;28;20307;-86
2022/06/02 01:30:58;;;;;;;2.60;1.77;;;;;;;14.41;100.00;96342.78;5011062;28;20332;-87
2022/06/02 01:33:44;;;;;;;3.23;1.80;;;;;;;14.38;100.00;96360.34;5036104;28;20206;-87
2022/06/02 01:36:20;;;;;;;2.97;2.00;;;;;;;14.37;100.00;96366.91;5039240;28;20219;-87
2022/06/02 01:38:59;;;;;;;2.63;2.00;;;;;;;14.36;100.00;96349.78;5042708;28;20306;-87
2022/06/02 01:41:34;;;;;;;6.20;2.03;;;;;;;14.31;100.00;96330.69;5044565;28;20260;-86
2022/06/02 01:44:05;;;;;;;2.23;1.80;;;;;;;14.33;100.00;96344.84;5027014;28;20224;-87
2022/06/02 01:46:43;;;;;;;2.43;1.90;;;;;;;14.34;100.00;96362.78;5027676;28;20377;-86
2022/06/02 01:49:34;;;;;;;2.53;2.10;;;;;;;14.41;100.00;96367.22;5036161;28;20213;-86
2022/06/02 01:52:22;;;;;;;2.13;1.93;;;;;;;14.37;100.00;96362.25;5027883;28;20211;-86
2022/06/02 01:54:59;;;;;;;2.13;1.93;;;;;;;14.45;100.00;96366.47;5035593;28;20211;-86
2022/06/02 01:57:46;;;;;;;3.97;2.00;;;;;;;14.36;100.00;96338.91;5022291;28;20201;-87
2022/06/02 02:00:15;;;;;;;2.40;2.20;;;;;;;14.35;100.00;96323.69;5014431;28;20234;-86
2022/06/02 02:02:56;;;;;;;6.00;2.27;;;;;;;14.31;100.00;96325.25;5045279;28;20206;-86
2022/06/02 02:05:56;;;;;;;4.70;1.90;;;;;;;14.42;100.00;96337.09;5025932;28;20203;-86
2022/06/02 02:08:38;;;;;;;2.87;1.80;;;;;;;14.39;100.00;96330.25;5038480;28;20249;-87
2022/06/02 02:11:22;;;;;;;1.90;1.80;;;;;;;14.36;100.00;96333.47;5017162;28;20210;-86
2022/06/02 02:13:59;;;;;;;2.10;1.90;;;;;;;14.35;100.00;96331.00;5039308;28;20207;-86
2022/06/02 02:16:36;;;;;;;2.47;2.00;;;;;;;14.34;100.00;96319.31;5021908;28;20248;-87
2022/06/02 02:19:19;;;;;;;4.50;1.90;;;;;;;14.33;100.00;96320.38;5025664;28;20206;-86
2022/06/02 02:21:59;;;;;;;2.17;1.90;;;;;;;14.29;100.00;96326.59;5030181;28;20294;-86
2022/06/02 02:24:45;;;;;;;2.43;1.80;;;;;;;14.31;100.00;96338.81;5022345;28;20252;-87
2022/06/02 02:27:21;;;;;;;2.70;1.73;;;;;;;14.28;100.00;96331.22;5030729;28;20226;-87
2022/06/02 02:29:58;;;;;;;3.27;2.10;;;;;;;14.23;100.00;96311.28;5031291;28;20228;-86
2022/06/02 02:32:37;;;;;;;3.60;1.90;;;;;;;14.21;100.00;96297.13;5033697;28;20253;-87
2022/06/02 02:35:12;;;;;;;3.10;1.90;;;;;;;14.25;100.00;96301.00;5035888;28;20225;-86
2022/06/02 02:37:47;;;;;;;3.00;2.00;;;;;;;14.22;100.00;96299.59;5024164;28;20202;-87
2022/06/02 02:40:20;;;;;;;4.60;2.20;;;;;;;14.20;100.00;96300.97;5018717;28;20304;-86
2022/06/02 02:42:52;;;;;;;5.30;2.17;;;;;;;14.17;100.00;96302.28;5010465;28;20283;-87
2022/06/02 02:45:34;;;;;;;3.53;2.77;;;;;;;14.17;100.00;96302.28;5005699;28;20281;-87
2022/06/02 02:48:08;;;;;;;2.50;2.10;;;;;;;14.13;100.00;96309.28;5016959;28;20226;-87
2022/06/02 02:50:42;;;;;;;2.13;1.93;;;;;;;14.18;100.00;96312.06;5009499;28;20289;-86
2022/06/02 02:53:16;;;;;;;2.20;1.90;;;;;;;14.17;100.00;96299.56;4999960;28;20206;-87
2022/06/02 02:55:49;;;;;;;2.30;1.87;;;;;;;14.19;100.00;96300.13;5006996;28;20207;-86
2022/06/02 02:58:25;;;;;;;2.43;1.80;;;;;;;14.18;100.00;96306.63;5005175;28;20211;-86
2022/06/02 03:01:01;;;;;;;2.63;1.80;;;;;;;14.13;100.00;96306.56;5018674;28;20221;-86
2022/06/02 03:03:34;;;;;;;2.13;1.93;;;;;;;14.11;100.00;96308.72;5021571;28;20218;-86
2022/06/02 03:06:14;;;;;;;2.97;2.10;;;;;;;14.14;100.00;96297.34;5023132;28;20207;-87
2022/06/02 03:08:50;;;;;;;2.23;1.90;;;;;;;14.15;100.00;96292.75;5024229;28;20222;-86
2022/06/02 03:11:34;;;;;;;3.20;1.80;;;;;;;14.14;100.00;96291.09;5009204;28;20206;-87
2022/06/02 03:14:11;;;;;;;2.73;2.03;;;;;;;14.11;100.00;96291.63;5010484;28;20210;-86
2022/06/02 03:16:39;;;;;;;2.60;2.40;;;;;;;14.09;100.00;96308.16;5020746;28;20234;-87
2022/06/02 03:19:18;;;;;;;3.63;2.60;;;;;;;14.11;100.00;96308.72;5036411;28;20210;-87
2022/06/02 03:21:55;;;;;;;3.80;2.60;;;;;;;13.98;100.00;96296.34;5020255;28;20207;-87
2022/06/02 03:24:43;;;;;;;1.97;1.83;;;;;;;13.99;100.00;96294.47;5009690;28;20273;-86
2022/06/02 03:27:27;;;;;;;3.07;2.30;;;;;;;13.99;100.00;96289.03;5021233;28;20226;-87
2022/06/02 03:30:08;;;;;;;3.30;2.10;;;;;;;13.95;100.00;96285.19;5027670;28;20226;-86
2022/06/02 03:32:58;;;;;;;3.87;2.00;;;;;;;13.99;100.00;96283.59;5011556;28;20307;-87
2022/06/02 03:35:32;;;;;;;2.70;2.03;;;;;;;14.02;100.00;96283.09;5026336;28;20199;-87
2022/06/02 03:38:27;;;;;;;4.50;2.10;;;;;;;14.02;100.00;96283.09;5010120;28;20214;-86
2022/06/02 03:41:13;;;;;;;3.80;1.90;;;;;;;13.98;100.00;96273.81;5027572;28;20269;-86
2022/06/02 03:43:51;;;;;;;3.23;1.97;;;;;;;13.90;100.00;96268.81;5027642;28;20206;-87
2022/06/02 03:46:34;;;;;;;5.80;2.30;;;;;;;13.94;100.00;96281.66;5028416;28;20281;-86
2022/06/02 03:49:30;;;;;;;4.60;3.83;;;;;;;13.99;100.00;96300.72;5043299;28;20198;-87
2022/06/02 03:52:12;;;;;;;4.87;3.60;;;;;;;13.88;100.00;96300.81;5030318;28;20211;-86
2022/06/02 03:54:58;;;;;;;2.50;2.30;;;;;;;13.90;100.00;96310.38;5042817;28;20203;-87
2022/06/02 03:57:46;;;;;;;4.77;2.70;;;;;;;13.84;100.00;96300.53;5043827;28;20237;-86
2022/06/02 04:00:21;;;;;;;2.80;2.40;;;;;;;13.89;100.00;96302.47;5031117;28;20199;-86
2022/06/02 04:02:53;;;;;;;3.00;2.30;;;;;;;13.95;100.00;96306.91;5031081;28;20321;-87
2022/06/02 04:05:50;;;;;;;2.77;2.10;;;;;;;13.88;100.00;96325.25;5045457;28;20263;-86
2022/06/02 04:08:53;;;;;;;5.77;2.43;;;;;;;13.91;100.00;96313.91;5024852;28;20222;-87
2022/06/02 04:14:47;;;;;;;4.57;2.97;;;;;;;14.03;100.00;96296.41;5026544;28;20305;-87
2022/06/02 04:17:26;;;;;;;3.50;2.30;;;;;;;14.02;100.00;96292.06;5031471;28;20319;-87
2022/06/02 04:20:35;;;;;;;3.80;2.70;;;;;;;14.04;100.00;96297.22;5026466;28;20234;-88
2022/06/02 04:23:18;;;;;;;4.37;2.50;;;;;;;14.10;100.00;96307.09;5024620;28;20272;-87
2022/06/02 04:25:55;;;;;;;3.30;2.40;;;;;;;14.07;100.00;96296.72;5040168;28;20206;-87
2022/06/02 04:28:35;;;;;;;3.87;2.30;;;;;;;14.04;100.00;96297.22;5038473;28;20229;-86
2022/06/02 04:31:25;;;;;;;3.57;2.40;;;;;;;13.99;100.00;96311.56;5019861;28;20236;-87
2022/06/02 04:33:57;;;;;;;3.90;3.50;;;;;;;14.01;100.00;96314.84;5024693;28;20319;-87
2022/06/02 04:36:32;;;;;;;5.03;2.70;;;;;;;14.09;100.00;96296.47;5029872;28;20206;-88
2022/06/02 04:39:08;;;;;;;3.27;2.97;;;;;;;14.14;100.00;96304.66;5039183;28;20209;-87
2022/06/02 04:41:46;;;;;;;3.33;2.57;;;;;;;14.20;100.00;96318.06;5016425;28;20244;-87
2022/06/02 04:44:24;;;;;;;4.13;2.60;;;;;;;14.13;100.00;96303.84;5008751;28;20207;-87
2022/06/02 04:47:00;;;;;;;2.63;2.33;;;;;;;14.21;100.00;96311.53;5012955;28;20214;-88
2022/06/02 04:49:40;;;;;;;3.43;2.63;;;;;;;14.23;100.00;96311.28;5006190;28;20207;-87
2022/06/02 04:52:15;;;;;;;5.10;2.33;;;;;;;14.21;100.00;96297.97;4999431;28;20215;-87
2022/06/02 04:54:52;;;;;;;3.97;2.27;;;;;;;14.30;100.00;96318.16;5002994;28;20206;-88
2022/06/02 04:57:28;;;;;;;2.90;2.60;;;;;;;14.34;100.00;96335.63;4997005;28;20207;-87
2022/06/02 05:00:07;;;;;;;3.17;2.40;;;;;;;14.37;100.00;96335.09;5009090;28;20202;-87
2022/06/02 05:02:46;;;;;;;3.73;3.20;;;;;;;14.31;100.00;96332.56;5012109;28;20198;-86
2022/06/02 05:05:18;;;;;;;4.27;2.50;;;;;;;14.35;100.00;96341.88;4999762;28;20308;-87
2022/06/02 05:08:04;;;;;;;2.57;2.27;;;;;;;14.35;100.00;96334.53;5010482;28;20231;-87
2022/06/02 05:10:40;;;;;;;3.37;2.70;;;;;;;14.31;100.00;96333.41;5021456;28;20203;-87
2022/06/02 05:13:16;;;;;;;4.73;3.73;;;;;;;14.38;100.00;96338.63;4999635;28;20297;-87
2022/06/02 05:16:12;;;;;;;4.60;2.37;;;;;;;14.45;100.00;96343.91;4999498;28;20227;-88
2022/06/02 05:19:22;;;;;;;2.87;2.57;;;;;;;14.41;100.00;96346.31;5024053;28;20218;-88
2022/06/02 05:22:29;;;;;;;2.87;2.53;;;;;;;14.43;100.00;96337.91;5022226;28;20215;-88
2022/06/02 05:25:26;;;;;;;3.33;2.50;;;;;;;14.55;100.00;96331.25;5024750;28;20211;-86
2022/06/02 05:28:20;;;;;;;3.37;2.40;;;;;;;14.62;100.00;96337.31;4964126;28;20229;-87
2022/06/02 05:31:10;;;;;;;2.63;2.37;;;;;;;14.64;100.00;96340.56;4967395;28;20651;-88
2022/06/02 05:34:04;;;;;;;2.60;2.37;;;;;;;14.68;100.00;96341.72;4999841;28;20198;-87
2022/06/02 05:36:55;;;;;;;2.83;2.63;;;;;;;14.69;100.00;96356.97;4999509;28;20463;-86
2022/06/02 05:39:42;;;;;;;2.80;2.60;;;;;;;14.66;100.00;96364.78;5008981;28;20206;-87
2022/06/02 05:42:23;;;;;;;4.30;3.00;;;;;;;14.64;100.00;96361.50;5025807;28;20264;-87
2022/06/02 05:45:05;;;;;;;4.47;3.20;;;;;;;14.58;100.00;96357.09;5026300;28;20198;-87
2022/06/02 05:47:48;;;;;;;3.03;2.77;;;;;;;14.54;100.00;96364.13;5038246;28;20218;-87
2022/06/02 05:50:24;;;;;;;3.87;3.30;;;;;;;14.63;100.00;96354.44;5039530;28;20277;-86
2022/06/02 05:53:03;;;;;;;3.20;2.90;;;;;;;14.66;100.00;96353.91;5038649;28;20222;-85
2022/06/02 05:55:46;;;;;;;2.97;2.60;;;;;;;14.74;100.00;96367.03;5024139;28;20198;-87
2022/06/02 05:58:35;;;;;;;3.43;2.80;;;;;;;14.68;100.00;96365.34;5016502;28;20209;-86
2022/06/02 06:01:14;;;;;;;3.43;2.70;;;;;;;14.64;100.00;96359.59;5024897;28;20301;-86
2022/06/02 06:04:07;;;;;;;3.40;3.10;;;;;;;14.66;100.00;96359.34;5042129;28;20194;-87
2022/06/02 06:06:43;;;;;;;4.87;2.83;;;;;;;14.61;100.00;96356.59;5025719;28;20300;-86
2022/06/02 06:09:22;;;;;;;4.83;3.00;;;;;;;14.64;100.00;96366.94;5024106;28;20316;-86
2022/06/02 06:11:59;;;;;;;5.17;2.80;;;;;;;14.72;100.00;96361.88;5046304;28;20205;-87
2022/06/02 06:14:37;;;;;;;3.50;2.83;;;;;;;14.78;100.00;96362.75;5025592;28;20208;-87
2022/06/02 06:17:11;;;;;;;2.93;2.60;;;;;;;14.81;100.00;96364.13;5025984;28;20236;-87
2022/06/02 06:19:53;;;;;;;6.20;2.53;;;;;;;14.85;100.00;96362.53;5021121;28;20205;-87
2022/06/02 06:22:47;;;;;;;4.67;3.07;;;;;;;14.86;100.00;96375.88;5028457;28;20238;-87
2022/06/02 06:25:29;;;;;;;3.90;2.67;;;;;;;14.90;100.00;96377.00;5042783;28;20203;-86
2022/06/02 06:28:09;;;;;;;4.80;2.80;;;;;;;15.05;100.00;96388.03;5012026;28;20245;-87
2022/06/02 06:30:51;;;;;;;3.70;3.30;;;;;;;15.00;100.00;96387.16;5029878;28;20205;-87
2022/06/02 06:33:33;;;;;;;4.40;2.60;;;;;;;14.97;100.00;96393.91;5024267;28;20205;-86
2022/06/02 06:36:17;;;;;;;3.60;2.53;;;;;;;14.96;100.00;96386.03;5027910;28;20206;-86
2022/06/02 06:39:01;;;;;;;5.67;2.40;;;;;;;15.01;100.00;96384.19;5021366;28;20307;-86
2022/06/02 06:41:38;;;;;;;2.90;2.33;;;;;;;15.11;100.00;96400.59;5045615;28;20225;-87
2022/06/02 06:44:15;;;;;;;3.03;2.33;;;;;;;15.18;100.00;96399.56;5024189;28;20211;-87
2022/06/02 06:46:50;;;;;;;2.40;2.20;;;;;;;15.22;100.00;96398.00;5040826;28;20209;-87
2022/06/02 06:49:21;;;;;;;4.20;2.37;;;;;;;15.27;100.00;96403.47;5017404;28;20248;-86
2022/06/02 06:52:08;;;;;;;5.60;2.90;;;;;;;15.25;100.00;96411.06;5046526;28;20210;-87
2022/06/02 06:54:47;;;;;;;4.60;4.10;;;;;;;15.29;100.00;96418.44;5042776;28;20233;-86
2022/06/02 06:57:25;;;;;;;4.07;3.30;;;;;;;15.36;100.00;96415.50;5039151;28;20201;-86
2022/06/02 07:00:00;;;;;;;4.90;2.80;;;;;;;15.43;100.00;96427.81;5035571;28;20213;-87
2022/06/02 07:02:42;;;;;;;4.90;2.30;;;;;;;15.50;100.00;96430.31;5039128;28;20233;-87
2022/06/02 07:05:13;;;;;;;3.70;2.30;;;;;;;15.47;100.00;96420.78;5040414;28;20214;-87
2022/06/02 07:07:54;;;;;;;4.97;2.17;;;;;;;15.50;100.00;96427.59;5027556;28;20207;-87
2022/06/02 07:10:28;;;;;;;3.20;2.47;;;;;;;15.53;100.00;96421.66;5046107;28;20270;-87
2022/06/02 07:13:02;;;;;;;5.30;2.80;;;;;;;15.51;100.00;96411.03;5044487;28;20232;-87
2022/06/02 07:15:41;;;;;;;4.17;2.57;;;;;;;15.59;100.00;96423.34;5017258;28;20217;-87
2022/06/02 07:18:21;;;;;;;3.33;2.90;;;;;;;15.63;100.00;96426.38;5016556;28;20294;-86
2022/06/02 07:20:56;;;;;;;5.20;3.23;;;;;;;15.63;100.00;96410.88;5057601;28;20202;-87
2022/06/02 07:23:38;;;;;;;5.33;3.57;;;;;;;15.80;100.00;96419.72;5055558;28;20260;-86
2022/06/02 07:26:16;;;;;;;3.30;2.93;;;;;;;15.93;100.00;96423.06;5048974;28;20322;-87
2022/06/02 07:28:58;;;;;;;2.87;2.60;;;;;;;15.96;100.00;96420.63;5060621;28;20288;-87
2022/06/02 07:31:45;;;;;;;4.47;2.70;;;;;;;15.93;100.00;96425.78;5045568;28;20307;-86
2022/06/02 07:34:30;;;;;;;3.03;2.53;;;;;;;15.94;100.00;96416.53;5050263;28;20205;-86
2022/06/02 07:37:21;;;;;;;3.77;2.53;;;;;;;16.00;100.00;96412.75;5043834;28;20193;-87
2022/06/02 07:40:17;;;;;;;3.03;2.50;;;;;;;16.00;100.00;96413.56;5052112;28;20237;-88
2022/06/02 07:43:08;;;;;;;16.03;12.50;;;;;;;16.16;100.00;96419.97;5042455;28;20236;-87
2022/06/02 07:45:50;;;;;;;4.00;3.37;;;;;;;16.31;100.00;96416.50;5038584;28;20278;-87
2022/06/02 07:48:41;;;;;;;3.90;2.40;;;;;;;16.34;100.00;96414.03;5065062;28;20227;-88
2022/06/02 07:51:18;;;;;;;3.93;2.83;;;;;;;16.41;100.00;96417.38;5043878;28;20209;-88
2022/06/02 07:54:16;;;;;;;2.87;2.60;;;;;;;16.44;100.00;96416.81;5049034;28;20213;-87
2022/06/02 07:56:53;;;;;;;3.63;2.30;;;;;;;16.44;100.00;96407.81;5045550;28;20225;-87
2022/06/02 07:59:29;;;;;;;4.97;2.60;;;;;;;16.40;100.00;96395.81;5040387;28;20217;-87
2022/06/02 08:02:24;;;;;;;4.83;2.50;;;;;;;16.33;100.00;96401.53;5057753;28;20201;-87
2022/06/02 08:05:00;;;;;;;3.57;2.33;;;;;;;16.28;100.00;96410.47;5048392;28;20236;-87
2022/06/02 08:07:33;;;;;;;5.70;2.77;;;;;;;16.31;100.00;96409.13;5062433;28;20241;-87
2022/06/02 08:10:07;;;;;;;4.67;2.60;;;;;;;16.37;100.00;96402.63;5044946;28;20320;-87
2022/06/02 08:12:44;;;;;;;3.03;2.73;;;;;;;16.51;100.00;96398.31;5044755;28;20216;-87
2022/06/02 08:15:26;;;;;;;6.90;2.57;;;;;;;16.53;100.00;96389.88;5039437;28;20274;-87
2022/06/02 08:17:58;;;;;;;3.17;2.87;;;;;;;16.68;100.00;96391.84;5065395;28;20201;-82
2022/06/02 08:20:49;;;;;;;5.07;2.60;;;;;;;16.94;100.00;96394.38;5049941;28;20210;-85
2022/06/02 08:23:42;;;;;;;4.43;2.40;;;;;;;16.93;100.00;96383.75;5035305;28;20299;-85
2022/06/02 08:26:14;;;;;;;2.80;2.20;;;;;;;16.93;100.00;96390.03;5045969;28;20241;-83
2022/06/02 08:28:58;;;;;;;2.90;2.33;;;;;;;16.93;100.00;96392.75;5046954;28;20284;-82
2022/06/02 08:31:49;;;;;;;2.57;2.30;;;;;;;17.00;100.00;96392.50;5058766;28;20209;-83
2022/06/02 08:34:21;;;;;;;3.70;2.30;;;;;;;17.05;100.00;96397.97;5057005;28;20201;-86
2022/06/02 08:36:55;;;;;;;3.00;2.30;;;;;;;16.98;100.00;96394.69;5046866;28;20206;-83
2022/06/02 08:39:48;;;;;;;2.40;2.20;;;;;;;17.13;100.00;96388.44;5039530;28;20209;-84
2022/06/02 08:42:38;;;;;;;2.17;1.97;;;;;;;17.19;100.00;96399.06;5022958;28;20236;-82
2022/06/02 08:45:24;;;;;;;3.07;2.30;;;;;;;17.14;100.00;96399.06;5058309;28;20213;-81
2022/06/02 08:48:31;;;;;;;3.80;2.30;;;;;;;17.30;100.00;96399.91;5059765;28;20202;-86
2022/06/02 08:51:20;;;;;;;3.77;3.00;;;;;;;17.44;100.00;96398.28;5042415;28;20230;-86
2022/06/02 08:54:22;;;;;;;2.53;1.83;;;;;;;17.56;100.00;96398.84;5046240;28;20356;-87
2022/06/02 08:57:14;;;;;;;3.10;1.70;;;;;;;17.59;100.00;96398.31;5051217;28;20216;-85
2022/06/02 09:00:20;;;;;;;2.80;1.90;;;;;;;17.73;100.00;96404.88;5046795;28;20206;-83
2022/06/02 09:03:21;;;;;;;3.77;2.50;;;;;;;17.82;100.00;96418.78;5042337;28;20206;-82
2022/06/02 09:06:25;;;;;;;3.13;2.13;;;;;;;17.92;100.00;96415.25;5044113;28;20222;-83
2022/06/02 09:09:12;;;;;;;3.60;2.47;;;;;;;17.92;100.00;96412.50;5056230;28;20224;-86
2022/06/02 09:11:57;;;;;;;2.77;2.10;;;;;;;18.00;100.00;96414.69;5053471;28;20302;-87
2022/06/02 09:14:49;;;;;;;2.83;2.10;;;;;;;18.02;100.00;96410.59;5057347;28;20252;-85
2022/06/02 09:17:28;;;;;;;2.23;2.03;;;;;;;18.06;100.00;96408.94;5063174;28;20327;-85
2022/06/02 09:20:14;;;;;;;5.30;2.30;;;;;;;18.04;100.00;96400.19;5043737;28;20210;-85
2022/06/02 09:23:03;;;;;;;7.03;2.43;;;;;;;18.05;100.00;96407.28;5046291;28;20206;-83
2022/06/02 09:25:49;;;;;;;3.17;2.73;;;;;;;18.02;100.00;96396.94;5045810;28;20316;-83
2022/06/02 09:28:46;;;;;;;2.42;2.22;;;;;;;17.99;100.00;96392.00;5043390;28;20221;-83
2022/06/02 09:32:01;;;;;;;3.07;2.47;;;;;;;17.96;100.00;96391.72;5052898;28;20197;-86
2022/06/02 09:34:49;;;;;;;3.90;2.90;;;;;;;17.99;100.00;96392.00;4973375;28;20208;-86
2022/06/02 09:37:42;;;;;;;4.07;2.90;;;;;;;18.08;100.00;96408.66;5049349;28;20197;-86
2022/06/02 09:40:26;;;;;;;3.03;2.70;;;;;;;18.22;100.00;96406.97;5035565;28;20280;-86
2022/06/02 09:43:12;;;;;;;7.37;2.80;;;;;;;18.25;100.00;96406.44;5052271;28;20352;-86
2022/06/02 09:45:57;;;;;;;3.58;2.70;;;;;;;18.27;100.00;96414.34;5047127;28;20212;-87
2022/06/02 09:48:49;;;;;;;4.85;2.70;;;;;;;18.48;100.00;96410.44;5044113;28;20213;-87
2022/06/02 09:51:38;;;;;;;5.15;2.80;;;;;;;18.62;100.00;96406.06;5034107;28;20213;-87
2022/06/02 09:54:39;;;;;;;4.68;2.65;;;;;;;18.92;100.00;96428.91;5050894;28;20205;-87
2022/06/02 09:57:59;;;;;;;5.93;2.80;;;;;;;19.14;100.00;96429.34;5057936;28;20300;-84
2022/06/02 10:01:08;;;;;;;4.53;2.80;;;;;;;19.23;100.00;96438.56;5041841;28;20316;-89
2022/06/02 10:04:10;;;;;;;5.05;2.85;;;;;;;19.60;100.00;96438.91;5014771;28;20216;-88
2022/06/02 10:07:07;;;;;;;6.32;3.00;;;;;;;20.10;100.00;96439.59;5050730;28;20213;-88
2022/06/02 10:09:57;;;;;;;4.53;2.47;;;;;;;20.30;100.00;96428.44;5043161;28;20317;-89
2022/06/02 10:12:57;;;;;;;6.13;3.05;;;;;;;20.46;100.00;96415.41;5044237;28;20204;-89
2022/06/02 10:15:54;;;;;;;2.50;2.30;;;;;;;20.95;100.00;96422.50;5064740;28;20209;-91
2022/06/02 10:18:54;;;;;;;4.00;1.98;;;;;;;21.14;100.00;96415.91;5052539;28;20205;-90
2022/06/02 10:21:33;;;;;;;3.83;2.05;;;;;;;21.29;100.00;96416.84;5048111;28;20318;-91
2022/06/02 10:24:45;;;;;;;3.58;2.30;;;;;;;21.46;100.00;96414.38;5042360;28;20217;-90
2022/06/02 10:27:33;;;;;;;2.38;1.92;;;;;;;21.72;100.00;96418.38;5052225;28;20209;-90
2022/06/02 10:30:40;;;;;;;2.63;2.20;;;;;;;21.98;100.00;96421.56;5041453;28;20229;-90
2022/06/02 10:33:40;;;;;;;2.47;2.28;;;;;;;22.00;99.68;96415.75;5065528;28;20238;-83
2022/06/02 10:36:29;;;;;;;2.30;2.03;;;;;;;22.22;94.46;96404.91;5033528;28;20206;-81
2022/06/02 10:39:12;;;;;;;2.00;1.80;;;;;;;22.29;92.38;96404.53;5063502;28;20205;-80
2022/06/02 10:42:00;;;;;;;3.45;1.90;;;;;;;22.54;92.61;96415.03;5053942;28;20290;-80
2022/06/02 10:44:58;;;;;;;2.28;1.95;;;;;;;22.55;92.71;96408.41;5032788;28;20309;-80
2022/06/02 10:48:04;;;;;;;3.05;2.00;;;;;;;22.38;92.35;96398.00;5041099;28;20214;-80
2022/06/02 10:50:49;;;;;;;2.05;1.83;;;;;;;22.38;88.32;96400.75;5053987;28;20253;-82
2022/06/02 10:53:50;;;;;;;2.42;1.90;;;;;;;22.41;92.65;96400.16;5061621;28;20209;-80
2022/06/02 10:56:46;;;;;;;3.22;2.00;;;;;;;22.35;95.62;96404.13;5042810;28;20209;-83
2022/06/02 10:59:54;;;;;;;2.72;2.00;;;;;;;22.40;89.91;96395.75;5058706;28;20260;-84
2022/06/02 11:03:04;;;;;;;2.00;1.80;;;;;;;22.54;92.51;96396.56;5044412;28;20236;-82
2022/06/02 11:06:22;;;;;;;2.13;1.92;;;;;;;22.42;90.00;96398.22;5057623;28;20206;-82
2022/06/02 11:09:25;;;;;;;4.65;2.30;;;;;;;22.62;92.18;96398.63;4971625;28;20215;-82
2022/06/02 11:12:16;;;;;;;3.08;2.15;;;;;;;22.94;90.22;96397.72;4952256;28;20251;-85
2022/06/02 11:15:15;;;;;;;4.38;2.83;;;;;;;22.93;90.22;96398.03;5055608;28;20220;-84
2022/06/02 11:18:24;;;;;;;7.22;2.63;;;;;;;23.00;90.44;96384.66;5051165;28;20208;-82
2022/06/02 11:21:37;;;;;;;2.75;2.03;;;;;;;22.92;90.19;96382.63;5054095;28;20225;-86
2022/06/02 11:24:56;;;;;;;2.95;2.65;;;;;;;23.01;88.42;96369.75;5058072;28;20273;-84
2022/06/02 11:27:43;;;;;;;4.18;2.40;;;;;;;23.21;89.61;96376.78;5057890;28;20248;-84
2022/06/02 11:30:43;;;;;;;2.75;2.17;;;;;;;23.54;86.13;96374.66;5051436;28;20361;-83
2022/06/02 11:33:58;;;;;;;3.78;2.30;;;;;;;23.92;84.34;96375.88;5052853;28;20213;-84
2022/06/02 11:37:18;;;;;;;2.25;2.10;;;;;;;23.90;80.09;96372.66;5035086;28;20276;-84
2022/06/02 11:40:39;;;;;;;2.95;2.65;;;;;;;23.69;81.80;96357.72;5046108;28;20293;-84
2022/06/02 11:43:15;;;;;;;4.15;2.28;;;;;;;23.41;85.15;96348.72;5047550;28;20332;-85
2022/06/02 11:46:35;;;;;;;2.80;2.60;;;;;;;23.44;85.18;96356.38;5048276;28;20210;-83
2022/06/02 11:49:31;;;;;;;3.33;2.95;;;;;;;23.40;87.55;96347.91;5046705;28;20316;-86
2022/06/02 11:52:34;;;;;;;4.78;2.90;;;;;;;23.32;86.79;96348.66;5051391;28;20201;-84
2022/06/02 11:55:25;;;;;;;3.28;2.67;;;;;;;23.12;89.08;96343.63;5042760;28;20671;-85
2022/06/02 11:58:34;;;;;;;3.15;2.92;;;;;;;22.88;88.73;96332.06;5054286;28;20531;-85
2022/06/02 12:01:27;;;;;;;3.78;2.90;;;;;;;22.47;91.04;96330.13;5058815;28;20230;-85
2022/06/02 12:04:46;;;;;;;4.05;3.13;;;;;;;22.23;91.67;96324.03;5062831;28;20208;-84
2022/06/02 12:08:05;;;;;;;3.08;2.88;;;;;;;22.32;95.15;96319.44;5043672;28;20213;-85
2022/06/02 12:11:17;;;;;;;5.05;2.80;;;;;;;22.54;95.17;96322.28;5009353;28;20240;-84
2022/06/02 12:14:06;;;;;;;2.90;2.70;;;;;;;23.12;90.50;96324.34;5046707;28;20220;-85
2022/06/02 12:17:03;;;;;;;3.58;3.00;;;;;;;23.33;88.24;96327.44;5049348;28;20292;-84
2022/06/02 12:19:54;;;;;;;4.72;3.40;;;;;;;23.57;87.55;96324.38;5052922;28;20202;-85
2022/06/02 12:22:44;;;;;;;5.40;3.65;;;;;;;23.51;87.39;96329.22;5048656;28;20229;-85
2022/06/02 12:25:37;;;;;;;3.70;3.40;;;;;;;23.83;87.12;96322.63;5054849;28;20212;-85
2022/06/02 12:28:51;;;;;;;5.07;3.03;;;;;;;24.03;83.55;96305.53;5026709;28;20213;-85
2022/06/02 12:31:45;;;;;;;4.35;2.90;;;;;;;24.30;82.07;96301.00;5053739;28;20221;-85
2022/06/02 12:34:40;;;;;;;3.28;2.97;;;;;;;24.24;79.51;96305.03;5025427;28;20228;-84
2022/06/02 12:37:27;;;;;;;5.53;3.00;;;;;;;24.23;82.94;96314.44;5048296;28;20201;-85
2022/06/02 12:40:07;;;;;;;4.50;3.25;;;;;;;24.30;80.78;96315.59;5048783;28;20203;-85
2022/06/02 12:43:12;;;;;;;2.92;2.72;;;;;;;24.37;81.15;96313.19;5047694;28;20240;-84
2022/06/02 12:45:47;;;;;;;3.53;2.70;;;;;;;24.43;79.44;96313.84;5057541;28;20206;-85
2022/06/02 12:49:01;;;;;;;3.67;2.63;;;;;;;24.69;75.22;96311.97;5036515;28;20221;-85
2022/06/02 12:51:50;;;;;;;2.75;2.55;;;;;;;24.58;73.17;96315.38;5043636;28;20229;-86
2022/06/02 12:54:54;;;;;;;3.85;2.88;;;;;;;24.83;75.18;96309.09;5054388;28;20213;-86
2022/06/02 12:57:49;;;;;;;2.92;2.65;;;;;;;25.20;73.77;96308.50;5057463;28;20304;-85
2022/06/02 13:00:33;;;;;;;3.92;2.70;;;;;;;25.14;74.61;96317.28;5041191;28;20305;-86
2022/06/02 13:03:51;;;;;;;3.30;3.00;;;;;;;24.49;75.01;96305.13;5043910;28;20225;-85